sensor_id;sensor_type;location;lat;lon;timestamp;temperature;humidity
26821;DHT22;37186;51.394;5.454;2023-06-22T00:01:37;24.70;55.50
26821;DHT22;37186;51.394;5.454;2023-06-22T00:04:38;24.70;55.80
26821;DHT22;37186;51.394;5.454;2023-06-22T00:07:38;24.60;55.70
26821;DHT22;37186;51.394;5.454;2023-06-22T00:10:39;24.60;55.70
26821;DHT22;37186;51.394;5.454;2023-06-22T00:13:39;24.60;56.50
26821;DHT22;37186;51.394;5.454;2023-06-22T00:16:40;24.50;55.80
26821;DHT22;37186;51.394;5.454;2023-06-22T00:19:43;24.50;55.80
26821;DHT22;37186;51.394;5.454;2023-06-22T00:22:44;24.50;56.00
26821;DHT22;37186;51.394;5.454;2023-06-22T00:25:44;24.40;55.90
26821;DHT22;37186;51.394;5.454;2023-06-22T00:28:45;24.40;55.90
26821;DHT22;37186;51.394;5.454;2023-06-22T00:31:46;24.40;56.10
26821;DHT22;37186;51.394;5.454;2023-06-22T00:34:46;24.40;56.10
26821;DHT22;37186;51.394;5.454;2023-06-22T00:37:47;24.40;56.10
26821;DHT22;37186;51.394;5.454;2023-06-22T00:40:47;24.30;56.10
26821;DHT22;37186;51.394;5.454;2023-06-22T00:43:48;24.30;56.20
26821;DHT22;37186;51.394;5.454;2023-06-22T00:46:48;24.30;56.10
26821;DHT22;37186;51.394;5.454;2023-06-22T00:49:49;24.30;56.10
26821;DHT22;37186;51.394;5.454;2023-06-22T00:52:57;24.20;56.20
26821;DHT22;37186;51.394;5.454;2023-06-22T00:55:59;24.20;56.30
26821;DHT22;37186;51.394;5.454;2023-06-22T00:59:00;24.10;56.30
26821;DHT22;37186;51.394;5.454;2023-06-22T01:02:03;24.10;56.40
26821;DHT22;37186;51.394;5.454;2023-06-22T01:05:04;24.00;56.20
26821;DHT22;37186;51.394;5.454;2023-06-22T01:11:28;24.00;56.40
26821;DHT22;37186;51.394;5.454;2023-06-22T01:14:40;24.00;56.40
26821;DHT22;37186;51.394;5.454;2023-06-22T01:17:44;23.90;56.50
26821;DHT22;37186;51.394;5.454;2023-06-22T01:20:46;23.90;56.50
26821;DHT22;37186;51.394;5.454;2023-06-22T01:24:18;23.90;56.70
26821;DHT22;37186;51.394;5.454;2023-06-22T01:31:21;23.80;56.80
26821;DHT22;37186;51.394;5.454;2023-06-22T01:34:23;23.80;56.80
26821;DHT22;37186;51.394;5.454;2023-06-22T01:37:25;23.80;56.90
26821;DHT22;37186;51.394;5.454;2023-06-22T01:40:27;23.80;57.00
26821;DHT22;37186;51.394;5.454;2023-06-22T01:43:28;23.70;57.00
26821;DHT22;37186;51.394;5.454;2023-06-22T01:46:29;23.70;57.20
26821;DHT22;37186;51.394;5.454;2023-06-22T01:49:30;23.70;57.10
26821;DHT22;37186;51.394;5.454;2023-06-22T01:52:30;23.70;57.20
26821;DHT22;37186;51.394;5.454;2023-06-22T01:55:34;23.70;57.30
26821;DHT22;37186;51.394;5.454;2023-06-22T01:58:39;23.70;57.30
26821;DHT22;37186;51.394;5.454;2023-06-22T02:02:01;23.70;57.20
26821;DHT22;37186;51.394;5.454;2023-06-22T02:05:12;23.70;57.40
26821;DHT22;37186;51.394;5.454;2023-06-22T02:08:24;23.70;57.70
26821;DHT22;37186;51.394;5.454;2023-06-22T02:11:29;23.60;57.40
26821;DHT22;37186;51.394;5.454;2023-06-22T02:14:31;23.60;57.50
26821;DHT22;37186;51.394;5.454;2023-06-22T02:17:33;23.60;58.10
26821;DHT22;37186;51.394;5.454;2023-06-22T02:20:37;23.60;57.50
26821;DHT22;37186;51.394;5.454;2023-06-22T02:23:37;23.50;57.50
26821;DHT22;37186;51.394;5.454;2023-06-22T02:26:38;23.50;57.90
26821;DHT22;37186;51.394;5.454;2023-06-22T02:29:42;23.50;57.50
26821;DHT22;37186;51.394;5.454;2023-06-22T02:32:43;23.50;57.80
26821;DHT22;37186;51.394;5.454;2023-06-22T02:35:43;23.50;57.60
26821;DHT22;37186;51.394;5.454;2023-06-22T02:38:48;23.50;57.50
26821;DHT22;37186;51.394;5.454;2023-06-22T02:41:52;23.40;57.20
26821;DHT22;37186;51.394;5.454;2023-06-22T02:44:53;23.40;57.60
26821;DHT22;37186;51.394;5.454;2023-06-22T02:47:54;23.40;57.80
26821;DHT22;37186;51.394;5.454;2023-06-22T02:50:55;23.30;57.70
26821;DHT22;37186;51.394;5.454;2023-06-22T02:53:55;23.40;57.70
26821;DHT22;37186;51.394;5.454;2023-06-22T02:56:57;23.30;57.70
26821;DHT22;37186;51.394;5.454;2023-06-22T02:59:58;23.30;57.80
26821;DHT22;37186;51.394;5.454;2023-06-22T03:02:59;23.30;57.90
26821;DHT22;37186;51.394;5.454;2023-06-22T03:05:59;23.30;57.80
26821;DHT22;37186;51.394;5.454;2023-06-22T03:09:03;23.30;58.10
26821;DHT22;37186;51.394;5.454;2023-06-22T03:12:04;23.20;58.00
26821;DHT22;37186;51.394;5.454;2023-06-22T03:15:09;23.30;58.10
26821;DHT22;37186;51.394;5.454;2023-06-22T03:18:11;23.20;58.20
26821;DHT22;37186;51.394;5.454;2023-06-22T03:21:11;23.20;58.20
26821;DHT22;37186;51.394;5.454;2023-06-22T03:24:12;23.20;58.00
26821;DHT22;37186;51.394;5.454;2023-06-22T03:27:12;23.20;58.10
26821;DHT22;37186;51.394;5.454;2023-06-22T03:30:14;23.20;58.20
26821;DHT22;37186;51.394;5.454;2023-06-22T03:33:15;23.10;57.80
26821;DHT22;37186;51.394;5.454;2023-06-22T03:36:16;23.10;57.70
26821;DHT22;37186;51.394;5.454;2023-06-22T03:39:19;23.10;58.10
26821;DHT22;37186;51.394;5.454;2023-06-22T03:42:20;23.10;58.10
26821;DHT22;37186;51.394;5.454;2023-06-22T03:45:21;23.10;58.30
26821;DHT22;37186;51.394;5.454;2023-06-22T03:48:22;23.00;58.30
26821;DHT22;37186;51.394;5.454;2023-06-22T03:51:22;23.00;58.20
26821;DHT22;37186;51.394;5.454;2023-06-22T03:54:23;23.00;58.20
26821;DHT22;37186;51.394;5.454;2023-06-22T03:57:23;23.00;58.10
26821;DHT22;37186;51.394;5.454;2023-06-22T04:00:24;23.00;58.20
26821;DHT22;37186;51.394;5.454;2023-06-22T04:03:24;22.90;58.30
26821;DHT22;37186;51.394;5.454;2023-06-22T04:06:25;22.90;58.20
26821;DHT22;37186;51.394;5.454;2023-06-22T04:09:26;22.90;58.20
26821;DHT22;37186;51.394;5.454;2023-06-22T04:12:27;22.90;58.30
26821;DHT22;37186;51.394;5.454;2023-06-22T04:15:27;22.90;58.50
26821;DHT22;37186;51.394;5.454;2023-06-22T04:18:28;22.90;58.30
26821;DHT22;37186;51.394;5.454;2023-06-22T04:21:28;22.90;58.30
26821;DHT22;37186;51.394;5.454;2023-06-22T04:24:29;22.90;58.30
26821;DHT22;37186;51.394;5.454;2023-06-22T04:27:30;22.80;58.40
26821;DHT22;37186;51.394;5.454;2023-06-22T04:30:32;22.80;58.30
26821;DHT22;37186;51.394;5.454;2023-06-22T04:33:33;22.90;58.40
26821;DHT22;37186;51.394;5.454;2023-06-22T04:36:43;22.80;58.60
26821;DHT22;37186;51.394;5.454;2023-06-22T04:39:45;22.80;58.60
26821;DHT22;37186;51.394;5.454;2023-06-22T04:42:46;22.80;58.60
26821;DHT22;37186;51.394;5.454;2023-06-22T04:45:52;22.90;58.50
26821;DHT22;37186;51.394;5.454;2023-06-22T04:48:53;22.80;58.50
26821;DHT22;37186;51.394;5.454;2023-06-22T04:51:53;22.80;58.50
26821;DHT22;37186;51.394;5.454;2023-06-22T04:54:55;22.80;58.50
26821;DHT22;37186;51.394;5.454;2023-06-22T04:57:58;22.80;58.60
26821;DHT22;37186;51.394;5.454;2023-06-22T05:01:04;22.80;58.70
26821;DHT22;37186;51.394;5.454;2023-06-22T05:04:05;22.80;58.40
26821;DHT22;37186;51.394;5.454;2023-06-22T05:07:07;22.80;58.60
26821;DHT22;37186;51.394;5.454;2023-06-22T05:10:08;22.80;59.30
26821;DHT22;37186;51.394;5.454;2023-06-22T05:13:08;22.90;58.60
26821;DHT22;37186;51.394;5.454;2023-06-22T05:16:09;22.90;58.60
26821;DHT22;37186;51.394;5.454;2023-06-22T05:19:10;22.90;58.70
26821;DHT22;37186;51.394;5.454;2023-06-22T05:22:10;22.90;59.00
26821;DHT22;37186;51.394;5.454;2023-06-22T05:25:13;22.90;58.70
26821;DHT22;37186;51.394;5.454;2023-06-22T05:28:13;22.90;58.70
26821;DHT22;37186;51.394;5.454;2023-06-22T05:31:15;22.90;58.90
26821;DHT22;37186;51.394;5.454;2023-06-22T05:34:16;22.90;59.20
26821;DHT22;37186;51.394;5.454;2023-06-22T05:37:16;22.90;58.70
26821;DHT22;37186;51.394;5.454;2023-06-22T05:40:17;22.90;59.30
26821;DHT22;37186;51.394;5.454;2023-06-22T05:43:18;22.90;58.70
26821;DHT22;37186;51.394;5.454;2023-06-22T05:46:19;22.90;58.90
26821;DHT22;37186;51.394;5.454;2023-06-22T05:49:20;22.90;58.90
26821;DHT22;37186;51.394;5.454;2023-06-22T05:52:22;22.90;59.60
26821;DHT22;37186;51.394;5.454;2023-06-22T05:55:23;22.90;59.20
26821;DHT22;37186;51.394;5.454;2023-06-22T05:58:23;23.00;59.10
26821;DHT22;37186;51.394;5.454;2023-06-22T06:01:24;23.00;59.50
26821;DHT22;37186;51.394;5.454;2023-06-22T06:04:26;23.00;59.30
26821;DHT22;37186;51.394;5.454;2023-06-22T06:07:26;23.00;59.30
26821;DHT22;37186;51.394;5.454;2023-06-22T06:10:27;23.00;59.10
26821;DHT22;37186;51.394;5.454;2023-06-22T06:13:30;23.00;59.30
26821;DHT22;37186;51.394;5.454;2023-06-22T06:16:30;23.00;59.30
26821;DHT22;37186;51.394;5.454;2023-06-22T06:19:31;23.10;59.40
26821;DHT22;37186;51.394;5.454;2023-06-22T06:22:31;23.10;59.30
26821;DHT22;37186;51.394;5.454;2023-06-22T06:25:32;23.10;59.20
26821;DHT22;37186;51.394;5.454;2023-06-22T06:28:33;23.10;59.20
26821;DHT22;37186;51.394;5.454;2023-06-22T06:31:34;23.10;59.30
26821;DHT22;37186;51.394;5.454;2023-06-22T06:34:34;23.10;59.30
26821;DHT22;37186;51.394;5.454;2023-06-22T06:37:40;23.20;59.20
26821;DHT22;37186;51.394;5.454;2023-06-22T06:40:40;23.20;59.40
26821;DHT22;37186;51.394;5.454;2023-06-22T06:43:41;23.20;59.30
26821;DHT22;37186;51.394;5.454;2023-06-22T06:46:45;23.20;59.40
26821;DHT22;37186;51.394;5.454;2023-06-22T06:49:45;23.20;59.40
26821;DHT22;37186;51.394;5.454;2023-06-22T06:52:46;23.20;60.20
26821;DHT22;37186;51.394;5.454;2023-06-22T06:55:47;23.30;59.70
26821;DHT22;37186;51.394;5.454;2023-06-22T06:58:50;23.30;59.60
26821;DHT22;37186;51.394;5.454;2023-06-22T07:01:50;23.30;59.50
26821;DHT22;37186;51.394;5.454;2023-06-22T07:04:51;23.30;59.40
26821;DHT22;37186;51.394;5.454;2023-06-22T07:07:51;23.30;59.40
26821;DHT22;37186;51.394;5.454;2023-06-22T07:10:53;23.30;59.40
26821;DHT22;37186;51.394;5.454;2023-06-22T07:13:54;23.30;59.40
26821;DHT22;37186;51.394;5.454;2023-06-22T07:16:54;23.30;59.40
26821;DHT22;37186;51.394;5.454;2023-06-22T07:19:55;23.30;59.30
26821;DHT22;37186;51.394;5.454;2023-06-22T07:22:55;23.30;59.40
26821;DHT22;37186;51.394;5.454;2023-06-22T07:25:56;23.30;59.40
26821;DHT22;37186;51.394;5.454;2023-06-22T07:28:57;23.30;59.40
26821;DHT22;37186;51.394;5.454;2023-06-22T07:31:57;23.30;59.50
26821;DHT22;37186;51.394;5.454;2023-06-22T07:34:58;23.40;59.60
26821;DHT22;37186;51.394;5.454;2023-06-22T07:37:59;23.40;59.60
26821;DHT22;37186;51.394;5.454;2023-06-22T07:40:59;23.40;59.70
26821;DHT22;37186;51.394;5.454;2023-06-22T07:44:00;23.40;60.00
26821;DHT22;37186;51.394;5.454;2023-06-22T07:47:00;23.40;59.70
26821;DHT22;37186;51.394;5.454;2023-06-22T07:50:02;23.40;59.70
26821;DHT22;37186;51.394;5.454;2023-06-22T07:53:03;23.50;59.90
26821;DHT22;37186;51.394;5.454;2023-06-22T07:56:04;23.50;59.80
26821;DHT22;37186;51.394;5.454;2023-06-22T07:59:07;23.50;59.90
26821;DHT22;37186;51.394;5.454;2023-06-22T08:02:07;23.50;60.00
26821;DHT22;37186;51.394;5.454;2023-06-22T08:05:10;23.60;60.00
26821;DHT22;37186;51.394;5.454;2023-06-22T08:08:11;23.60;60.30
26821;DHT22;37186;51.394;5.454;2023-06-22T08:11:12;23.60;60.10
26821;DHT22;37186;51.394;5.454;2023-06-22T08:14:12;23.70;60.30
26821;DHT22;37186;51.394;5.454;2023-06-22T08:17:13;23.70;60.10
26821;DHT22;37186;51.394;5.454;2023-06-22T08:20:14;23.70;60.00
26821;DHT22;37186;51.394;5.454;2023-06-22T08:23:14;23.80;60.30
26821;DHT22;37186;51.394;5.454;2023-06-22T08:26:15;23.80;60.90
26821;DHT22;37186;51.394;5.454;2023-06-22T08:29:16;23.80;60.50
26821;DHT22;37186;51.394;5.454;2023-06-22T08:32:16;23.80;60.30
26821;DHT22;37186;51.394;5.454;2023-06-22T08:35:17;23.80;60.00
26821;DHT22;37186;51.394;5.454;2023-06-22T08:38:17;23.80;60.00
26821;DHT22;37186;51.394;5.454;2023-06-22T08:41:19;23.80;60.00
26821;DHT22;37186;51.394;5.454;2023-06-22T08:44:19;23.80;60.00
26821;DHT22;37186;51.394;5.454;2023-06-22T08:47:20;23.80;60.00
26821;DHT22;37186;51.394;5.454;2023-06-22T08:50:21;23.80;60.00
26821;DHT22;37186;51.394;5.454;2023-06-22T08:53:22;23.80;60.00
26821;DHT22;37186;51.394;5.454;2023-06-22T08:56:22;23.90;60.10
26821;DHT22;37186;51.394;5.454;2023-06-22T08:59:23;23.80;60.10
26821;DHT22;37186;51.394;5.454;2023-06-22T09:02:27;23.90;60.10
26821;DHT22;37186;51.394;5.454;2023-06-22T09:05:30;23.90;60.00
26821;DHT22;37186;51.394;5.454;2023-06-22T09:08:32;23.80;60.30
26821;DHT22;37186;51.394;5.454;2023-06-22T09:11:32;23.90;60.20
26821;DHT22;37186;51.394;5.454;2023-06-22T09:14:33;23.90;60.30
26821;DHT22;37186;51.394;5.454;2023-06-22T09:17:33;24.00;61.10
26821;DHT22;37186;51.394;5.454;2023-06-22T09:20:34;24.00;60.50
26821;DHT22;37186;51.394;5.454;2023-06-22T09:23:35;24.00;60.50
26821;DHT22;37186;51.394;5.454;2023-06-22T09:26:35;24.00;61.40
26821;DHT22;37186;51.394;5.454;2023-06-22T09:29:36;24.10;60.80
26821;DHT22;37186;51.394;5.454;2023-06-22T09:32:37;24.10;60.70
26821;DHT22;37186;51.394;5.454;2023-06-22T09:35:37;24.10;60.60
26821;DHT22;37186;51.394;5.454;2023-06-22T09:38:38;24.10;60.80
26821;DHT22;37186;51.394;5.454;2023-06-22T09:41:39;24.20;60.60
26821;DHT22;37186;51.394;5.454;2023-06-22T09:44:39;24.20;60.60
26821;DHT22;37186;51.394;5.454;2023-06-22T09:47:40;24.20;60.80
26821;DHT22;37186;51.394;5.454;2023-06-22T09:50:40;24.20;60.60
26821;DHT22;37186;51.394;5.454;2023-06-22T09:53:41;24.20;60.50
26821;DHT22;37186;51.394;5.454;2023-06-22T09:56:42;24.20;60.60
26821;DHT22;37186;51.394;5.454;2023-06-22T09:59:42;24.20;60.60
26821;DHT22;37186;51.394;5.454;2023-06-22T10:02:43;24.30;60.50
26821;DHT22;37186;51.394;5.454;2023-06-22T10:05:44;24.20;60.50
26821;DHT22;37186;51.394;5.454;2023-06-22T10:08:44;24.20;60.40
26821;DHT22;37186;51.394;5.454;2023-06-22T10:11:45;24.30;60.50
26821;DHT22;37186;51.394;5.454;2023-06-22T10:14:45;24.30;60.40
26821;DHT22;37186;51.394;5.454;2023-06-22T10:17:46;24.20;60.40
26821;DHT22;37186;51.394;5.454;2023-06-22T10:20:51;24.20;60.50
26821;DHT22;37186;51.394;5.454;2023-06-22T10:23:52;24.30;60.80
26821;DHT22;37186;51.394;5.454;2023-06-22T10:26:52;24.20;60.50
26821;DHT22;37186;51.394;5.454;2023-06-22T10:29:53;24.20;60.60
26821;DHT22;37186;51.394;5.454;2023-06-22T10:32:54;24.20;60.50
26821;DHT22;37186;51.394;5.454;2023-06-22T10:35:54;24.20;61.10
26821;DHT22;37186;51.394;5.454;2023-06-22T10:38:55;24.20;60.80
26821;DHT22;37186;51.394;5.454;2023-06-22T10:41:56;24.20;60.80
26821;DHT22;37186;51.394;5.454;2023-06-22T10:44:56;24.20;60.80
26821;DHT22;37186;51.394;5.454;2023-06-22T10:47:57;24.20;60.90
26821;DHT22;37186;51.394;5.454;2023-06-22T10:50:57;24.20;60.90
26821;DHT22;37186;51.394;5.454;2023-06-22T10:53:58;24.20;61.10
26821;DHT22;37186;51.394;5.454;2023-06-22T10:56:59;24.20;61.10
26821;DHT22;37186;51.394;5.454;2023-06-22T10:59:59;24.10;61.00
26821;DHT22;37186;51.394;5.454;2023-06-22T11:03:00;24.10;61.10
26821;DHT22;37186;51.394;5.454;2023-06-22T11:06:01;24.10;61.30
26821;DHT22;37186;51.394;5.454;2023-06-22T11:09:01;24.10;62.30
26821;DHT22;37186;51.394;5.454;2023-06-22T11:12:02;24.10;61.40
26821;DHT22;37186;51.394;5.454;2023-06-22T11:15:04;24.10;61.50
26821;DHT22;37186;51.394;5.454;2023-06-22T11:18:04;24.10;61.80
26821;DHT22;37186;51.394;5.454;2023-06-22T11:21:05;24.10;61.60
26821;DHT22;37186;51.394;5.454;2023-06-22T11:24:06;24.00;61.80
26821;DHT22;37186;51.394;5.454;2023-06-22T11:27:07;24.00;61.80
26821;DHT22;37186;51.394;5.454;2023-06-22T11:30:07;24.00;62.00
26821;DHT22;37186;51.394;5.454;2023-06-22T11:33:08;24.00;62.10
26821;DHT22;37186;51.394;5.454;2023-06-22T11:36:09;23.90;62.20
26821;DHT22;37186;51.394;5.454;2023-06-22T11:39:11;23.90;62.20
26821;DHT22;37186;51.394;5.454;2023-06-22T11:42:14;23.90;62.20
26821;DHT22;37186;51.394;5.454;2023-06-22T11:45:14;23.90;62.10
26821;DHT22;37186;51.394;5.454;2023-06-22T11:48:15;23.80;62.50
26821;DHT22;37186;51.394;5.454;2023-06-22T11:51:16;23.80;62.30
26821;DHT22;37186;51.394;5.454;2023-06-22T11:54:16;23.80;62.80
26821;DHT22;37186;51.394;5.454;2023-06-22T11:57:17;23.80;63.00
26821;DHT22;37186;51.394;5.454;2023-06-22T12:00:18;23.80;62.50
26821;DHT22;37186;51.394;5.454;2023-06-22T12:03:19;23.70;62.80
26821;DHT22;37186;51.394;5.454;2023-06-22T12:06:21;23.80;64.70
26821;DHT22;37186;51.394;5.454;2023-06-22T12:09:22;23.70;63.30
26821;DHT22;37186;51.394;5.454;2023-06-22T12:12:22;23.70;63.00
26821;DHT22;37186;51.394;5.454;2023-06-22T12:15:23;23.70;63.50
26821;DHT22;37186;51.394;5.454;2023-06-22T12:18:24;23.70;63.90
26821;DHT22;37186;51.394;5.454;2023-06-22T12:21:24;23.70;64.40
26821;DHT22;37186;51.394;5.454;2023-06-22T12:24:25;23.70;63.70
26821;DHT22;37186;51.394;5.454;2023-06-22T12:27:26;23.70;64.10
26821;DHT22;37186;51.394;5.454;2023-06-22T12:30:26;23.70;63.70
26821;DHT22;37186;51.394;5.454;2023-06-22T12:33:27;23.60;65.00
26821;DHT22;37186;51.394;5.454;2023-06-22T12:36:27;23.60;64.40
26821;DHT22;37186;51.394;5.454;2023-06-22T12:39:28;23.60;63.70
26821;DHT22;37186;51.394;5.454;2023-06-22T12:42:28;23.60;63.80
26821;DHT22;37186;51.394;5.454;2023-06-22T12:45:29;23.60;64.40
26821;DHT22;37186;51.394;5.454;2023-06-22T12:48:33;23.60;64.00
26821;DHT22;37186;51.394;5.454;2023-06-22T12:51:40;23.60;64.70
26821;DHT22;37186;51.394;5.454;2023-06-22T12:54:41;23.60;65.40
26821;DHT22;37186;51.394;5.454;2023-06-22T12:57:41;23.60;64.90
26821;DHT22;37186;51.394;5.454;2023-06-22T13:00:42;23.50;65.20
26821;DHT22;37186;51.394;5.454;2023-06-22T13:03:42;23.60;65.40
26821;DHT22;37186;51.394;5.454;2023-06-22T13:06:44;23.50;65.90
26821;DHT22;37186;51.394;5.454;2023-06-22T13:09:47;23.50;64.60
26821;DHT22;37186;51.394;5.454;2023-06-22T13:12:51;23.50;65.00
26821;DHT22;37186;51.394;5.454;2023-06-22T13:15:55;23.50;64.70
26821;DHT22;37186;51.394;5.454;2023-06-22T13:18:55;23.40;64.70
26821;DHT22;37186;51.394;5.454;2023-06-22T13:21:56;23.40;64.60
26821;DHT22;37186;51.394;5.454;2023-06-22T13:24:57;23.40;64.90
26821;DHT22;37186;51.394;5.454;2023-06-22T13:27:58;23.40;65.70
26821;DHT22;37186;51.394;5.454;2023-06-22T13:30:58;23.40;65.20
26821;DHT22;37186;51.394;5.454;2023-06-22T13:33:59;23.40;65.60
26821;DHT22;37186;51.394;5.454;2023-06-22T13:36:59;23.40;66.20
26821;DHT22;37186;51.394;5.454;2023-06-22T13:40:00;23.40;65.60
26821;DHT22;37186;51.394;5.454;2023-06-22T13:43:03;23.30;65.60
26821;DHT22;37186;51.394;5.454;2023-06-22T13:46:04;23.40;65.80
26821;DHT22;37186;51.394;5.454;2023-06-22T13:49:04;23.30;65.80
26821;DHT22;37186;51.394;5.454;2023-06-22T13:52:05;23.30;65.90
26821;DHT22;37186;51.394;5.454;2023-06-22T13:55:10;23.30;65.90
26821;DHT22;37186;51.394;5.454;2023-06-22T13:58:11;23.30;66.30
26821;DHT22;37186;51.394;5.454;2023-06-22T14:01:11;23.20;65.60
26821;DHT22;37186;51.394;5.454;2023-06-22T14:04:12;23.20;65.90
26821;DHT22;37186;51.394;5.454;2023-06-22T14:07:12;23.10;65.70
26821;DHT22;37186;51.394;5.454;2023-06-22T14:10:13;23.20;66.20
26821;DHT22;37186;51.394;5.454;2023-06-22T14:13:14;23.10;67.70
26821;DHT22;37186;51.394;5.454;2023-06-22T14:16:14;23.10;65.60
26821;DHT22;37186;51.394;5.454;2023-06-22T14:19:17;23.10;66.50
26821;DHT22;37186;51.394;5.454;2023-06-22T14:22:18;23.00;66.40
26821;DHT22;37186;51.394;5.454;2023-06-22T14:25:19;23.00;66.80
26821;DHT22;37186;51.394;5.454;2023-06-22T14:28:19;23.00;66.40
26821;DHT22;37186;51.394;5.454;2023-06-22T14:31:20;22.90;65.70
26821;DHT22;37186;51.394;5.454;2023-06-22T14:34:20;22.90;65.80
26821;DHT22;37186;51.394;5.454;2023-06-22T14:37:21;22.90;66.60
26821;DHT22;37186;51.394;5.454;2023-06-22T14:40:21;22.90;66.70
26821;DHT22;37186;51.394;5.454;2023-06-22T14:43:22;22.90;66.70
26821;DHT22;37186;51.394;5.454;2023-06-22T14:46:22;22.80;67.20
26821;DHT22;37186;51.394;5.454;2023-06-22T14:49:23;22.80;66.80
26821;DHT22;37186;51.394;5.454;2023-06-22T14:52:24;22.80;66.70
26821;DHT22;37186;51.394;5.454;2023-06-22T14:55:25;22.70;66.30
26821;DHT22;37186;51.394;5.454;2023-06-22T14:58:25;22.70;66.30
26821;DHT22;37186;51.394;5.454;2023-06-22T15:01:26;22.70;66.90
26821;DHT22;37186;51.394;5.454;2023-06-22T15:04:27;22.70;67.20
26821;DHT22;37186;51.394;5.454;2023-06-22T15:07:31;22.70;66.80
26821;DHT22;37186;51.394;5.454;2023-06-22T15:10:32;22.60;68.10
26821;DHT22;37186;51.394;5.454;2023-06-22T15:13:33;22.60;67.30
26821;DHT22;37186;51.394;5.454;2023-06-22T15:16:34;22.60;67.30
26821;DHT22;37186;51.394;5.454;2023-06-22T15:19:38;22.60;67.20
26821;DHT22;37186;51.394;5.454;2023-06-22T15:22:38;22.60;67.70
26821;DHT22;37186;51.394;5.454;2023-06-22T15:25:39;22.60;68.20
26821;DHT22;37186;51.394;5.454;2023-06-22T15:28:40;22.60;67.40
26821;DHT22;37186;51.394;5.454;2023-06-22T15:31:40;22.50;67.50
26821;DHT22;37186;51.394;5.454;2023-06-22T15:34:41;22.50;67.00
26821;DHT22;37186;51.394;5.454;2023-06-22T15:37:41;22.50;67.60
26821;DHT22;37186;51.394;5.454;2023-06-22T15:40:42;22.50;67.80
26821;DHT22;37186;51.394;5.454;2023-06-22T15:43:42;22.50;67.30
26821;DHT22;37186;51.394;5.454;2023-06-22T15:46:43;22.50;67.80
26821;DHT22;37186;51.394;5.454;2023-06-22T15:49:44;22.50;69.40
26821;DHT22;37186;51.394;5.454;2023-06-22T15:52:44;22.40;67.70
26821;DHT22;37186;51.394;5.454;2023-06-22T15:55:47;22.50;67.90
26821;DHT22;37186;51.394;5.454;2023-06-22T15:58:48;22.40;69.70
26821;DHT22;37186;51.394;5.454;2023-06-22T16:01:49;22.40;69.30
26821;DHT22;37186;51.394;5.454;2023-06-22T16:04:49;22.40;68.50
26821;DHT22;37186;51.394;5.454;2023-06-22T16:07:50;22.40;68.70
26821;DHT22;37186;51.394;5.454;2023-06-22T16:10:51;22.40;68.70
26821;DHT22;37186;51.394;5.454;2023-06-22T16:13:52;22.40;68.20
26821;DHT22;37186;51.394;5.454;2023-06-22T16:16:53;22.30;69.50
26821;DHT22;37186;51.394;5.454;2023-06-22T16:19:54;22.30;68.70
26821;DHT22;37186;51.394;5.454;2023-06-22T16:22:54;22.30;68.30
26821;DHT22;37186;51.394;5.454;2023-06-22T16:25:55;22.30;68.40
26821;DHT22;37186;51.394;5.454;2023-06-22T16:28:56;22.30;68.90
26821;DHT22;37186;51.394;5.454;2023-06-22T16:31:56;22.30;68.90
26821;DHT22;37186;51.394;5.454;2023-06-22T16:34:57;22.30;68.30
26821;DHT22;37186;51.394;5.454;2023-06-22T16:37:58;22.30;69.40
26821;DHT22;37186;51.394;5.454;2023-06-22T16:40:58;22.30;69.00
26821;DHT22;37186;51.394;5.454;2023-06-22T16:43:59;22.30;70.10
26821;DHT22;37186;51.394;5.454;2023-06-22T16:47:05;22.30;70.30
26821;DHT22;37186;51.394;5.454;2023-06-22T16:50:06;22.20;69.20
26821;DHT22;37186;51.394;5.454;2023-06-22T16:53:07;22.20;70.00
26821;DHT22;37186;51.394;5.454;2023-06-22T16:56:07;22.20;68.40
26821;DHT22;37186;51.394;5.454;2023-06-22T16:59:09;22.20;68.50
26821;DHT22;37186;51.394;5.454;2023-06-22T17:02:16;22.20;68.60
26821;DHT22;37186;51.394;5.454;2023-06-22T17:05:18;22.20;68.50
26821;DHT22;37186;51.394;5.454;2023-06-22T17:08:20;22.20;69.90
26821;DHT22;37186;51.394;5.454;2023-06-22T17:11:21;22.20;70.00
26821;DHT22;37186;51.394;5.454;2023-06-22T17:14:23;22.30;68.90
26821;DHT22;37186;51.394;5.454;2023-06-22T17:17:25;22.20;69.20
26821;DHT22;37186;51.394;5.454;2023-06-22T17:20:27;22.20;68.70
26821;DHT22;37186;51.394;5.454;2023-06-22T17:23:28;22.20;68.80
26821;DHT22;37186;51.394;5.454;2023-06-22T17:26:30;22.20;70.00
26821;DHT22;37186;51.394;5.454;2023-06-22T17:29:32;22.20;69.20
26821;DHT22;37186;51.394;5.454;2023-06-22T17:32:36;22.20;68.50
26821;DHT22;37186;51.394;5.454;2023-06-22T17:35:49;22.20;69.30
26821;DHT22;37186;51.394;5.454;2023-06-22T17:38:51;22.20;68.70
26821;DHT22;37186;51.394;5.454;2023-06-22T17:41:53;22.20;69.40
26821;DHT22;37186;51.394;5.454;2023-06-22T17:45:00;22.20;69.00
26821;DHT22;37186;51.394;5.454;2023-06-22T17:48:00;22.20;69.60
26821;DHT22;37186;51.394;5.454;2023-06-22T17:51:01;22.30;70.10
26821;DHT22;37186;51.394;5.454;2023-06-22T17:54:02;22.30;69.60
26821;DHT22;37186;51.394;5.454;2023-06-22T17:57:13;22.30;70.70
26821;DHT22;37186;51.394;5.454;2023-06-22T18:00:14;22.30;69.60
26821;DHT22;37186;51.394;5.454;2023-06-22T18:03:15;22.30;70.00
26821;DHT22;37186;51.394;5.454;2023-06-22T18:06:15;22.30;69.30
26821;DHT22;37186;51.394;5.454;2023-06-22T18:09:16;22.30;69.30
26821;DHT22;37186;51.394;5.454;2023-06-22T18:12:18;22.20;69.10
26821;DHT22;37186;51.394;5.454;2023-06-22T18:15:22;22.20;69.10
26821;DHT22;37186;51.394;5.454;2023-06-22T18:18:24;22.20;69.30
26821;DHT22;37186;51.394;5.454;2023-06-22T18:21:26;22.20;69.50
26821;DHT22;37186;51.394;5.454;2023-06-22T18:24:27;22.20;69.30
26821;DHT22;37186;51.394;5.454;2023-06-22T18:27:28;22.20;70.60
26821;DHT22;37186;51.394;5.454;2023-06-22T18:30:29;22.20;69.40
26821;DHT22;37186;51.394;5.454;2023-06-22T18:33:29;22.20;69.40
26821;DHT22;37186;51.394;5.454;2023-06-22T18:36:35;22.20;69.20
26821;DHT22;37186;51.394;5.454;2023-06-22T18:39:38;22.20;69.00
26821;DHT22;37186;51.394;5.454;2023-06-22T18:42:44;22.10;69.30
26821;DHT22;37186;51.394;5.454;2023-06-22T18:45:45;22.10;69.30
26821;DHT22;37186;51.394;5.454;2023-06-22T18:48:46;22.10;69.40
26821;DHT22;37186;51.394;5.454;2023-06-22T18:52:12;22.10;69.10
26821;DHT22;37186;51.394;5.454;2023-06-22T18:55:14;22.10;69.00
26821;DHT22;37186;51.394;5.454;2023-06-22T18:58:16;22.10;68.90
26821;DHT22;37186;51.394;5.454;2023-06-22T19:01:18;22.10;68.90
26821;DHT22;37186;51.394;5.454;2023-06-22T19:04:24;22.10;69.30
26821;DHT22;37186;51.394;5.454;2023-06-22T19:10:51;22.00;68.80
26821;DHT22;37186;51.394;5.454;2023-06-22T19:13:52;22.00;69.00
26821;DHT22;37186;51.394;5.454;2023-06-22T19:16:57;22.00;69.00